sensor_id;sensor_type;location;lat;lon;timestamp;temperature;humidity
10702;DHT22;5402;50.004;8.246;2022-07-22T00:01:38;19.50;99.90
10702;DHT22;5402;50.004;8.246;2022-07-22T00:04:05;19.50;99.90
10702;DHT22;5402;50.004;8.246;2022-07-22T00:06:32;19.50;99.90
10702;DHT22;5402;50.004;8.246;2022-07-22T00:08:59;19.40;99.90
10702;DHT22;5402;50.004;8.246;2022-07-22T00:11:29;19.50;99.90
10702;DHT22;5402;50.004;8.246;2022-07-22T00:13:57;19.50;99.90
10702;DHT22;5402;50.004;8.246;2022-07-22T00:16:24;19.50;99.90
10702;DHT22;5402;50.004;8.246;2022-07-22T00:18:52;19.50;99.90
10702;DHT22;5402;50.004;8.246;2022-07-22T00:21:18;19.50;99.90
10702;DHT22;5402;50.004;8.246;2022-07-22T00:23:48;19.50;99.90
10702;DHT22;5402;50.004;8.246;2022-07-22T00:26:15;19.50;99.90
10702;DHT22;5402;50.004;8.246;2022-07-22T00:28:42;19.50;99.90
10702;DHT22;5402;50.004;8.246;2022-07-22T00:31:10;19.60;99.90
10702;DHT22;5402;50.004;8.246;2022-07-22T00:33:37;19.50;99.90
10702;DHT22;5402;50.004;8.246;2022-07-22T00:36:04;19.40;99.90
10702;DHT22;5402;50.004;8.246;2022-07-22T00:38:31;19.40;99.90
10702;DHT22;5402;50.004;8.246;2022-07-22T00:40:58;19.30;99.90
10702;DHT22;5402;50.004;8.246;2022-07-22T00:43:25;19.40;99.90
10702;DHT22;5402;50.004;8.246;2022-07-22T00:45:56;19.40;99.90
10702;DHT22;5402;50.004;8.246;2022-07-22T00:48:24;19.40;99.90
10702;DHT22;5402;50.004;8.246;2022-07-22T00:50:51;19.40;99.90
10702;DHT22;5402;50.004;8.246;2022-07-22T00:53:18;19.40;99.90
10702;DHT22;5402;50.004;8.246;2022-07-22T00:55:45;19.40;99.90
10702;DHT22;5402;50.004;8.246;2022-07-22T00:58:12;19.40;99.90
10702;DHT22;5402;50.004;8.246;2022-07-22T01:00:40;19.40;99.90
10702;DHT22;5402;50.004;8.246;2022-07-22T01:03:07;19.30;99.90
10702;DHT22;5402;50.004;8.246;2022-07-22T01:05:36;19.20;99.90
10702;DHT22;5402;50.004;8.246;2022-07-22T01:08:05;19.20;99.90
10702;DHT22;5402;50.004;8.246;2022-07-22T01:10:35;19.20;99.90
10702;DHT22;5402;50.004;8.246;2022-07-22T01:13:03;19.20;99.90
10702;DHT22;5402;50.004;8.246;2022-07-22T01:15:29;19.40;99.90
10702;DHT22;5402;50.004;8.246;2022-07-22T01:17:56;19.30;99.90
10702;DHT22;5402;50.004;8.246;2022-07-22T01:20:24;19.10;99.90
10702;DHT22;5402;50.004;8.246;2022-07-22T01:22:52;19.20;99.90
10702;DHT22;5402;50.004;8.246;2022-07-22T01:25:24;19.20;99.90
10702;DHT22;5402;50.004;8.246;2022-07-22T01:27:51;19.10;99.90
10702;DHT22;5402;50.004;8.246;2022-07-22T01:30:18;19.10;99.90
10702;DHT22;5402;50.004;8.246;2022-07-22T01:32:45;19.00;99.90
10702;DHT22;5402;50.004;8.246;2022-07-22T01:35:13;19.00;99.90
10702;DHT22;5402;50.004;8.246;2022-07-22T01:37:41;19.10;99.90
10702;DHT22;5402;50.004;8.246;2022-07-22T01:40:09;19.10;99.90
10702;DHT22;5402;50.004;8.246;2022-07-22T01:42:36;19.00;99.90
10702;DHT22;5402;50.004;8.246;2022-07-22T01:45:06;19.00;99.90
10702;DHT22;5402;50.004;8.246;2022-07-22T01:47:33;18.90;99.90
10702;DHT22;5402;50.004;8.246;2022-07-22T01:49:59;18.80;99.90
10702;DHT22;5402;50.004;8.246;2022-07-22T01:52:26;18.90;99.90
10702;DHT22;5402;50.004;8.246;2022-07-22T01:54:55;18.90;99.90
10702;DHT22;5402;50.004;8.246;2022-07-22T01:57:21;18.90;99.90
10702;DHT22;5402;50.004;8.246;2022-07-22T01:59:48;18.90;99.90
10702;DHT22;5402;50.004;8.246;2022-07-22T02:02:15;18.80;99.90
10702;DHT22;5402;50.004;8.246;2022-07-22T02:04:42;18.80;99.90
10702;DHT22;5402;50.004;8.246;2022-07-22T02:07:09;18.80;99.90
10702;DHT22;5402;50.004;8.246;2022-07-22T02:09:38;18.70;99.90
10702;DHT22;5402;50.004;8.246;2022-07-22T02:12:07;18.70;99.90
10702;DHT22;5402;50.004;8.246;2022-07-22T02:14:34;18.60;99.90
10702;DHT22;5402;50.004;8.246;2022-07-22T02:17:02;18.60;99.90
10702;DHT22;5402;50.004;8.246;2022-07-22T02:19:28;18.70;99.90
10702;DHT22;5402;50.004;8.246;2022-07-22T02:21:55;18.50;99.90
10702;DHT22;5402;50.004;8.246;2022-07-22T02:24:22;18.60;99.90
10702;DHT22;5402;50.004;8.246;2022-07-22T02:26:49;18.60;99.90
10702;DHT22;5402;50.004;8.246;2022-07-22T02:29:17;18.60;99.90
10702;DHT22;5402;50.004;8.246;2022-07-22T02:31:44;18.60;99.90
10702;DHT22;5402;50.004;8.246;2022-07-22T02:34:12;18.60;99.90
10702;DHT22;5402;50.004;8.246;2022-07-22T02:36:39;18.60;99.90
10702;DHT22;5402;50.004;8.246;2022-07-22T02:39:06;18.60;99.90
10702;DHT22;5402;50.004;8.246;2022-07-22T02:41:33;18.70;99.90
10702;DHT22;5402;50.004;8.246;2022-07-22T02:44:00;18.60;99.90
10702;DHT22;5402;50.004;8.246;2022-07-22T02:46:28;18.70;99.90
10702;DHT22;5402;50.004;8.246;2022-07-22T02:48:55;18.70;99.90
10702;DHT22;5402;50.004;8.246;2022-07-22T02:51:23;18.70;99.90
10702;DHT22;5402;50.004;8.246;2022-07-22T02:53:49;18.70;99.90
10702;DHT22;5402;50.004;8.246;2022-07-22T02:56:16;18.70;99.90
10702;DHT22;5402;50.004;8.246;2022-07-22T02:58:45;18.70;99.90
10702;DHT22;5402;50.004;8.246;2022-07-22T03:01:13;18.70;99.90
10702;DHT22;5402;50.004;8.246;2022-07-22T03:03:41;18.70;99.90
10702;DHT22;5402;50.004;8.246;2022-07-22T03:06:13;18.60;99.90
10702;DHT22;5402;50.004;8.246;2022-07-22T03:08:40;18.60;99.90
10702;DHT22;5402;50.004;8.246;2022-07-22T03:11:06;18.60;99.90
10702;DHT22;5402;50.004;8.246;2022-07-22T03:13:33;18.50;99.90
10702;DHT22;5402;50.004;8.246;2022-07-22T03:16:00;18.60;99.90
10702;DHT22;5402;50.004;8.246;2022-07-22T03:18:27;18.60;99.90
10702;DHT22;5402;50.004;8.246;2022-07-22T03:20:55;18.60;99.90
10702;DHT22;5402;50.004;8.246;2022-07-22T03:23:24;18.60;99.90
10702;DHT22;5402;50.004;8.246;2022-07-22T03:25:51;18.60;99.90
10702;DHT22;5402;50.004;8.246;2022-07-22T03:28:18;18.60;99.90
10702;DHT22;5402;50.004;8.246;2022-07-22T03:30:46;18.60;99.90
10702;DHT22;5402;50.004;8.246;2022-07-22T03:33:12;18.70;99.90
10702;DHT22;5402;50.004;8.246;2022-07-22T03:35:39;18.70;99.90
10702;DHT22;5402;50.004;8.246;2022-07-22T03:38:07;18.70;99.90
10702;DHT22;5402;50.004;8.246;2022-07-22T03:40:34;18.70;99.90
10702;DHT22;5402;50.004;8.246;2022-07-22T03:43:01;18.70;99.90
10702;DHT22;5402;50.004;8.246;2022-07-22T03:45:28;18.70;99.90
10702;DHT22;5402;50.004;8.246;2022-07-22T03:47:54;18.70;99.90
10702;DHT22;5402;50.004;8.246;2022-07-22T03:50:23;18.70;99.90
10702;DHT22;5402;50.004;8.246;2022-07-22T03:52:50;18.80;99.90
10702;DHT22;5402;50.004;8.246;2022-07-22T03:55:18;18.80;99.90
10702;DHT22;5402;50.004;8.246;2022-07-22T03:57:47;18.70;99.90
10702;DHT22;5402;50.004;8.246;2022-07-22T04:00:14;18.70;99.90
10702;DHT22;5402;50.004;8.246;2022-07-22T04:02:41;18.70;99.90
10702;DHT22;5402;50.004;8.246;2022-07-22T04:05:08;18.70;99.90
10702;DHT22;5402;50.004;8.246;2022-07-22T04:07:35;18.80;99.90
10702;DHT22;5402;50.004;8.246;2022-07-22T04:10:02;18.80;99.90
10702;DHT22;5402;50.004;8.246;2022-07-22T04:12:33;18.80;99.90
10702;DHT22;5402;50.004;8.246;2022-07-22T04:15:00;18.90;99.90
10702;DHT22;5402;50.004;8.246;2022-07-22T04:17:27;18.90;99.90
10702;DHT22;5402;50.004;8.246;2022-07-22T04:19:56;19.00;99.90
10702;DHT22;5402;50.004;8.246;2022-07-22T04:22:26;18.90;99.90
10702;DHT22;5402;50.004;8.246;2022-07-22T04:24:53;19.00;99.90
10702;DHT22;5402;50.004;8.246;2022-07-22T04:27:20;19.00;99.90
10702;DHT22;5402;50.004;8.246;2022-07-22T04:29:49;19.10;99.90
10702;DHT22;5402;50.004;8.246;2022-07-22T04:32:16;19.10;99.90
10702;DHT22;5402;50.004;8.246;2022-07-22T04:34:43;19.00;99.90
10702;DHT22;5402;50.004;8.246;2022-07-22T04:37:10;18.90;99.90
10702;DHT22;5402;50.004;8.246;2022-07-22T04:39:38;19.00;99.90
10702;DHT22;5402;50.004;8.246;2022-07-22T04:42:06;19.00;99.90
10702;DHT22;5402;50.004;8.246;2022-07-22T04:44:32;19.20;99.90
10702;DHT22;5402;50.004;8.246;2022-07-22T04:47:01;19.30;99.90
10702;DHT22;5402;50.004;8.246;2022-07-22T04:49:28;19.50;99.90
10702;DHT22;5402;50.004;8.246;2022-07-22T04:51:54;19.50;99.90
10702;DHT22;5402;50.004;8.246;2022-07-22T04:54:22;19.70;99.90
10702;DHT22;5402;50.004;8.246;2022-07-22T04:56:50;19.70;99.90
10702;DHT22;5402;50.004;8.246;2022-07-22T04:59:17;19.70;99.90
10702;DHT22;5402;50.004;8.246;2022-07-22T05:01:43;19.90;99.90
10702;DHT22;5402;50.004;8.246;2022-07-22T05:04:12;19.90;99.90
10702;DHT22;5402;50.004;8.246;2022-07-22T05:06:40;19.70;99.90
10702;DHT22;5402;50.004;8.246;2022-07-22T05:09:07;19.70;99.90
10702;DHT22;5402;50.004;8.246;2022-07-22T05:11:33;19.80;99.90
10702;DHT22;5402;50.004;8.246;2022-07-22T05:14:00;20.00;99.90
10702;DHT22;5402;50.004;8.246;2022-07-22T05:16:28;20.10;99.90
10702;DHT22;5402;50.004;8.246;2022-07-22T05:18:55;20.20;99.90
10702;DHT22;5402;50.004;8.246;2022-07-22T05:21:24;20.20;99.90
10702;DHT22;5402;50.004;8.246;2022-07-22T05:23:50;20.30;99.90
10702;DHT22;5402;50.004;8.246;2022-07-22T05:26:17;20.30;99.90
10702;DHT22;5402;50.004;8.246;2022-07-22T05:28:44;20.40;99.90
10702;DHT22;5402;50.004;8.246;2022-07-22T05:31:11;20.40;99.90
10702;DHT22;5402;50.004;8.246;2022-07-22T05:33:45;20.40;99.90
10702;DHT22;5402;50.004;8.246;2022-07-22T05:36:14;20.40;99.90
10702;DHT22;5402;50.004;8.246;2022-07-22T05:38:45;20.40;99.90
10702;DHT22;5402;50.004;8.246;2022-07-22T05:41:14;20.40;99.90
10702;DHT22;5402;50.004;8.246;2022-07-22T05:43:41;20.50;99.90
10702;DHT22;5402;50.004;8.246;2022-07-22T05:46:09;20.40;99.90
10702;DHT22;5402;50.004;8.246;2022-07-22T05:48:36;20.40;99.90
10702;DHT22;5402;50.004;8.246;2022-07-22T05:51:03;20.40;99.90
10702;DHT22;5402;50.004;8.246;2022-07-22T05:53:31;20.40;99.90
10702;DHT22;5402;50.004;8.246;2022-07-22T05:55:59;20.60;99.90
10702;DHT22;5402;50.004;8.246;2022-07-22T05:58:27;20.60;99.90
10702;DHT22;5402;50.004;8.246;2022-07-22T06:00:56;20.50;99.90
10702;DHT22;5402;50.004;8.246;2022-07-22T06:03:24;20.50;99.90
10702;DHT22;5402;50.004;8.246;2022-07-22T06:05:50;20.50;99.90
10702;DHT22;5402;50.004;8.246;2022-07-22T06:08:17;20.50;99.90
10702;DHT22;5402;50.004;8.246;2022-07-22T06:10:44;20.50;99.90
10702;DHT22;5402;50.004;8.246;2022-07-22T06:13:12;20.40;99.90
10702;DHT22;5402;50.004;8.246;2022-07-22T06:15:40;20.40;99.90
10702;DHT22;5402;50.004;8.246;2022-07-22T06:18:06;20.50;99.90
10702;DHT22;5402;50.004;8.246;2022-07-22T06:20:33;20.50;99.90
10702;DHT22;5402;50.004;8.246;2022-07-22T06:23:00;20.60;99.90
10702;DHT22;5402;50.004;8.246;2022-07-22T06:25:27;20.60;99.90
10702;DHT22;5402;50.004;8.246;2022-07-22T06:27:54;20.50;99.90
10702;DHT22;5402;50.004;8.246;2022-07-22T06:30:22;20.60;99.90
10702;DHT22;5402;50.004;8.246;2022-07-22T06:32:49;20.60;99.90
10702;DHT22;5402;50.004;8.246;2022-07-22T06:35:16;20.50;99.90
10702;DHT22;5402;50.004;8.246;2022-07-22T06:37:44;20.50;99.90
10702;DHT22;5402;50.004;8.246;2022-07-22T06:40:12;20.50;99.90
10702;DHT22;5402;50.004;8.246;2022-07-22T06:42:39;20.60;99.90
10702;DHT22;5402;50.004;8.246;2022-07-22T06:45:06;20.70;99.90
10702;DHT22;5402;50.004;8.246;2022-07-22T06:47:35;20.60;99.90
10702;DHT22;5402;50.004;8.246;2022-07-22T06:50:03;20.60;99.90
10702;DHT22;5402;50.004;8.246;2022-07-22T06:52:33;20.60;99.90
10702;DHT22;5402;50.004;8.246;2022-07-22T06:55:07;20.60;99.90
10702;DHT22;5402;50.004;8.246;2022-07-22T06:57:36;20.80;99.90
10702;DHT22;5402;50.004;8.246;2022-07-22T07:00:05;20.80;99.90
10702;DHT22;5402;50.004;8.246;2022-07-22T07:02:33;20.80;99.90
10702;DHT22;5402;50.004;8.246;2022-07-22T07:05:03;20.90;99.90
10702;DHT22;5402;50.004;8.246;2022-07-22T07:07:32;20.90;99.90
10702;DHT22;5402;50.004;8.246;2022-07-22T07:09:59;20.80;99.90
10702;DHT22;5402;50.004;8.246;2022-07-22T07:12:26;20.90;99.90
10702;DHT22;5402;50.004;8.246;2022-07-22T07:14:53;20.90;99.90
10702;DHT22;5402;50.004;8.246;2022-07-22T07:17:19;20.90;99.90
10702;DHT22;5402;50.004;8.246;2022-07-22T07:19:46;21.00;99.90
10702;DHT22;5402;50.004;8.246;2022-07-22T07:22:14;21.00;99.90
10702;DHT22;5402;50.004;8.246;2022-07-22T07:24:41;20.90;99.90
10702;DHT22;5402;50.004;8.246;2022-07-22T07:27:09;21.00;99.90
10702;DHT22;5402;50.004;8.246;2022-07-22T07:29:36;21.00;99.90
10702;DHT22;5402;50.004;8.246;2022-07-22T07:32:03;21.10;99.90
10702;DHT22;5402;50.004;8.246;2022-07-22T07:34:29;21.20;99.90
10702;DHT22;5402;50.004;8.246;2022-07-22T07:36:56;21.40;99.90
10702;DHT22;5402;50.004;8.246;2022-07-22T07:39:25;21.40;99.90
10702;DHT22;5402;50.004;8.246;2022-07-22T07:42:01;21.30;99.90
10702;DHT22;5402;50.004;8.246;2022-07-22T07:44:27;21.40;99.90
10702;DHT22;5402;50.004;8.246;2022-07-22T07:46:54;21.40;99.90
10702;DHT22;5402;50.004;8.246;2022-07-22T07:49:21;21.50;99.90
10702;DHT22;5402;50.004;8.246;2022-07-22T07:51:48;21.60;99.90
10702;DHT22;5402;50.004;8.246;2022-07-22T07:54:14;21.70;99.90
10702;DHT22;5402;50.004;8.246;2022-07-22T07:56:43;21.70;99.90
10702;DHT22;5402;50.004;8.246;2022-07-22T07:59:11;21.80;99.90
10702;DHT22;5402;50.004;8.246;2022-07-22T08:01:38;21.90;99.90
10702;DHT22;5402;50.004;8.246;2022-07-22T08:04:05;22.00;99.90
10702;DHT22;5402;50.004;8.246;2022-07-22T08:06:33;22.20;99.90
10702;DHT22;5402;50.004;8.246;2022-07-22T08:09:00;22.20;99.90
10702;DHT22;5402;50.004;8.246;2022-07-22T08:11:27;22.20;99.90
10702;DHT22;5402;50.004;8.246;2022-07-22T08:14:00;22.20;99.90
10702;DHT22;5402;50.004;8.246;2022-07-22T08:16:32;22.10;99.90
10702;DHT22;5402;50.004;8.246;2022-07-22T08:18:59;22.20;99.90
10702;DHT22;5402;50.004;8.246;2022-07-22T08:21:27;22.30;99.90
10702;DHT22;5402;50.004;8.246;2022-07-22T08:23:54;22.30;99.90
10702;DHT22;5402;50.004;8.246;2022-07-22T08:26:20;22.50;99.90
10702;DHT22;5402;50.004;8.246;2022-07-22T08:28:47;22.60;99.90
10702;DHT22;5402;50.004;8.246;2022-07-22T08:31:20;22.70;99.90
10702;DHT22;5402;50.004;8.246;2022-07-22T08:33:47;22.90;99.90
10702;DHT22;5402;50.004;8.246;2022-07-22T08:36:13;22.80;99.90
10702;DHT22;5402;50.004;8.246;2022-07-22T08:38:40;22.80;99.90
10702;DHT22;5402;50.004;8.246;2022-07-22T08:41:07;22.90;99.90
10702;DHT22;5402;50.004;8.246;2022-07-22T08:43:35;23.00;99.90
10702;DHT22;5402;50.004;8.246;2022-07-22T08:46:02;23.20;99.90
10702;DHT22;5402;50.004;8.246;2022-07-22T08:48:35;23.30;99.90
10702;DHT22;5402;50.004;8.246;2022-07-22T08:51:05;23.40;99.90
10702;DHT22;5402;50.004;8.246;2022-07-22T08:53:33;23.60;99.90
10702;DHT22;5402;50.004;8.246;2022-07-22T08:56:02;23.80;99.90
10702;DHT22;5402;50.004;8.246;2022-07-22T08:58:31;23.90;99.90
10702;DHT22;5402;50.004;8.246;2022-07-22T09:01:05;24.20;99.90
10702;DHT22;5402;50.004;8.246;2022-07-22T09:03:44;24.30;99.90
10702;DHT22;5402;50.004;8.246;2022-07-22T09:06:11;24.40;99.70
10702;DHT22;5402;50.004;8.246;2022-07-22T09:08:51;24.50;99.90
10702;DHT22;5402;50.004;8.246;2022-07-22T09:11:21;24.50;99.90
10702;DHT22;5402;50.004;8.246;2022-07-22T09:13:54;24.60;99.90
10702;DHT22;5402;50.004;8.246;2022-07-22T09:16:43;24.70;99.90
10702;DHT22;5402;50.004;8.246;2022-07-22T09:19:12;24.80;99.50
10702;DHT22;5402;50.004;8.246;2022-07-22T09:21:40;24.70;98.10
10702;DHT22;5402;50.004;8.246;2022-07-22T09:24:08;24.70;98.40
10702;DHT22;5402;50.004;8.246;2022-07-22T09:26:54;24.80;97.50
10702;DHT22;5402;50.004;8.246;2022-07-22T09:29:22;24.70;98.00
10702;DHT22;5402;50.004;8.246;2022-07-22T09:31:52;24.70;97.90
10702;DHT22;5402;50.004;8.246;2022-07-22T09:34:27;25.00;98.20
10702;DHT22;5402;50.004;8.246;2022-07-22T09:36:59;25.20;98.00
10702;DHT22;5402;50.004;8.246;2022-07-22T09:39:27;25.30;98.10
10702;DHT22;5402;50.004;8.246;2022-07-22T09:41:57;25.50;98.20
10702;DHT22;5402;50.004;8.246;2022-07-22T09:44:24;25.60;98.10
10702;DHT22;5402;50.004;8.246;2022-07-22T09:46:53;25.70;98.00
10702;DHT22;5402;50.004;8.246;2022-07-22T09:49:33;25.90;97.00
10702;DHT22;5402;50.004;8.246;2022-07-22T09:52:02;26.10;97.70
10702;DHT22;5402;50.004;8.246;2022-07-22T09:54:30;26.20;97.40
10702;DHT22;5402;50.004;8.246;2022-07-22T09:56:57;26.40;96.60
10702;DHT22;5402;50.004;8.246;2022-07-22T09:59:24;26.50;96.70
10702;DHT22;5402;50.004;8.246;2022-07-22T10:01:55;26.40;96.80
10702;DHT22;5402;50.004;8.246;2022-07-22T10:04:24;26.50;96.60
10702;DHT22;5402;50.004;8.246;2022-07-22T10:06:55;26.10;96.80
10702;DHT22;5402;50.004;8.246;2022-07-22T10:09:23;26.10;97.00
10702;DHT22;5402;50.004;8.246;2022-07-22T10:11:50;26.10;96.80
10702;DHT22;5402;50.004;8.246;2022-07-22T10:14:18;26.00;96.80
10702;DHT22;5402;50.004;8.246;2022-07-22T10:16:46;26.10;97.50
10702;DHT22;5402;50.004;8.246;2022-07-22T10:19:13;26.20;96.60
10702;DHT22;5402;50.004;8.246;2022-07-22T10:21:40;26.40;96.40
10702;DHT22;5402;50.004;8.246;2022-07-22T10:24:21;26.40;96.00
10702;DHT22;5402;50.004;8.246;2022-07-22T10:26:51;26.30;96.70
10702;DHT22;5402;50.004;8.246;2022-07-22T10:29:28;26.30;96.30
10702;DHT22;5402;50.004;8.246;2022-07-22T10:32:21;26.60;96.20
10702;DHT22;5402;50.004;8.246;2022-07-22T10:35:22;26.60;95.60
10702;DHT22;5402;50.004;8.246;2022-07-22T10:37:51;26.70;95.20
10702;DHT22;5402;50.004;8.246;2022-07-22T10:40:21;26.70;95.40
10702;DHT22;5402;50.004;8.246;2022-07-22T10:43:05;26.70;95.50
10702;DHT22;5402;50.004;8.246;2022-07-22T10:45:37;26.90;94.90
10702;DHT22;5402;50.004;8.246;2022-07-22T10:48:06;27.00;95.10
10702;DHT22;5402;50.004;8.246;2022-07-22T10:51:05;27.20;94.70
10702;DHT22;5402;50.004;8.246;2022-07-22T10:53:41;27.20;93.80
10702;DHT22;5402;50.004;8.246;2022-07-22T10:56:23;27.10;94.00
10702;DHT22;5402;50.004;8.246;2022-07-22T10:58:57;27.20;94.00
10702;DHT22;5402;50.004;8.246;2022-07-22T11:01:27;27.20;94.10
10702;DHT22;5402;50.004;8.246;2022-07-22T11:03:54;27.40;94.60
10702;DHT22;5402;50.004;8.246;2022-07-22T11:06:24;27.60;94.10
10702;DHT22;5402;50.004;8.246;2022-07-22T11:08:53;27.60;93.60
10702;DHT22;5402;50.004;8.246;2022-07-22T11:11:33;27.80;93.70
10702;DHT22;5402;50.004;8.246;2022-07-22T11:14:00;27.80;92.60
10702;DHT22;5402;50.004;8.246;2022-07-22T11:16:28;27.70;92.60
10702;DHT22;5402;50.004;8.246;2022-07-22T11:18:56;27.70;92.50
10702;DHT22;5402;50.004;8.246;2022-07-22T11:21:29;27.70;92.00
10702;DHT22;5402;50.004;8.246;2022-07-22T11:23:58;27.60;91.90
10702;DHT22;5402;50.004;8.246;2022-07-22T11:26:39;27.30;91.80
10702;DHT22;5402;50.004;8.246;2022-07-22T11:29:11;27.00;92.40
10702;DHT22;5402;50.004;8.246;2022-07-22T11:31:41;26.90;92.80
10702;DHT22;5402;50.004;8.246;2022-07-22T11:34:09;27.20;91.60
10702;DHT22;5402;50.004;8.246;2022-07-22T11:36:39;27.30;91.80
10702;DHT22;5402;50.004;8.246;2022-07-22T11:39:07;27.40;91.70
10702;DHT22;5402;50.004;8.246;2022-07-22T11:41:35;27.60;92.00
10702;DHT22;5402;50.004;8.246;2022-07-22T11:44:04;27.70;91.70
10702;DHT22;5402;50.004;8.246;2022-07-22T11:46:36;27.80;91.70
10702;DHT22;5402;50.004;8.246;2022-07-22T11:49:03;27.90;91.30
10702;DHT22;5402;50.004;8.246;2022-07-22T11:51:31;27.90;90.50
10702;DHT22;5402;50.004;8.246;2022-07-22T11:54:00;27.90;90.30
10702;DHT22;5402;50.004;8.246;2022-07-22T11:56:32;27.90;91.00
10702;DHT22;5402;50.004;8.246;2022-07-22T11:58:59;27.90;91.20
10702;DHT22;5402;50.004;8.246;2022-07-22T12:01:33;28.10;91.60
10702;DHT22;5402;50.004;8.246;2022-07-22T12:04:02;28.30;90.80
10702;DHT22;5402;50.004;8.246;2022-07-22T12:06:30;28.30;87.60
10702;DHT22;5402;50.004;8.246;2022-07-22T12:09:04;28.20;86.50
10702;DHT22;5402;50.004;8.246;2022-07-22T12:11:35;27.70;88.50
10702;DHT22;5402;50.004;8.246;2022-07-22T12:14:06;27.90;88.40
10702;DHT22;5402;50.004;8.246;2022-07-22T12:16:36;28.00;87.30
10702;DHT22;5402;50.004;8.246;2022-07-22T12:19:05;28.20;87.60
10702;DHT22;5402;50.004;8.246;2022-07-22T12:21:33;28.40;84.90
10702;DHT22;5402;50.004;8.246;2022-07-22T12:24:02;28.70;84.70
10702;DHT22;5402;50.004;8.246;2022-07-22T12:26:43;29.00;84.70
10702;DHT22;5402;50.004;8.246;2022-07-22T12:29:21;29.10;83.60
10702;DHT22;5402;50.004;8.246;2022-07-22T12:31:56;29.40;83.30
10702;DHT22;5402;50.004;8.246;2022-07-22T12:34:32;29.70;82.50
10702;DHT22;5402;50.004;8.246;2022-07-22T12:37:00;30.10;82.30
10702;DHT22;5402;50.004;8.246;2022-07-22T12:39:28;30.40;80.50
10702;DHT22;5402;50.004;8.246;2022-07-22T12:41:55;30.80;78.00
10702;DHT22;5402;50.004;8.246;2022-07-22T12:44:23;30.90;77.60
10702;DHT22;5402;50.004;8.246;2022-07-22T12:46:53;31.00;76.90
10702;DHT22;5402;50.004;8.246;2022-07-22T12:49:22;30.20;78.20
10702;DHT22;5402;50.004;8.246;2022-07-22T12:52:08;29.70;78.90
10702;DHT22;5402;50.004;8.246;2022-07-22T12:54:36;29.60;78.80
10702;DHT22;5402;50.004;8.246;2022-07-22T12:57:04;29.20;79.00
10702;DHT22;5402;50.004;8.246;2022-07-22T12:59:31;29.10;80.60
10702;DHT22;5402;50.004;8.246;2022-07-22T13:02:07;29.10;80.30
10702;DHT22;5402;50.004;8.246;2022-07-22T13:04:34;29.00;80.50
10702;DHT22;5402;50.004;8.246;2022-07-22T13:07:00;29.00;80.70
10702;DHT22;5402;50.004;8.246;2022-07-22T13:09:27;28.70;80.60
10702;DHT22;5402;50.004;8.246;2022-07-22T13:11:54;28.90;81.40
10702;DHT22;5402;50.004;8.246;2022-07-22T13:14:20;29.20;80.00
10702;DHT22;5402;50.004;8.246;2022-07-22T13:16:47;29.40;80.00
10702;DHT22;5402;50.004;8.246;2022-07-22T13:19:15;29.20;79.00
10702;DHT22;5402;50.004;8.246;2022-07-22T13:21:42;29.00;79.60
10702;DHT22;5402;50.004;8.246;2022-07-22T13:24:10;29.00;81.10
10702;DHT22;5402;50.004;8.246;2022-07-22T13:26:38;29.00;80.90
10702;DHT22;5402;50.004;8.246;2022-07-22T13:29:04;29.00;83.80
10702;DHT22;5402;50.004;8.246;2022-07-22T13:31:31;29.00;82.90
10702;DHT22;5402;50.004;8.246;2022-07-22T13:33:58;29.00;82.70
10702;DHT22;5402;50.004;8.246;2022-07-22T13:36:26;29.00;81.00
10702;DHT22;5402;50.004;8.246;2022-07-22T13:38:53;29.00;82.30
10702;DHT22;5402;50.004;8.246;2022-07-22T13:41:20;29.10;84.50
10702;DHT22;5402;50.004;8.246;2022-07-22T13:43:47;29.20;82.20
10702;DHT22;5402;50.004;8.246;2022-07-22T13:46:14;29.20;83.30
10702;DHT22;5402;50.004;8.246;2022-07-22T13:48:41;29.20;83.90
10702;DHT22;5402;50.004;8.246;2022-07-22T13:51:08;29.20;82.90
10702;DHT22;5402;50.004;8.246;2022-07-22T13:53:36;29.30;83.50
10702;DHT22;5402;50.004;8.246;2022-07-22T13:56:04;29.30;82.10
10702;DHT22;5402;50.004;8.246;2022-07-22T13:58:31;29.40;81.80
10702;DHT22;5402;50.004;8.246;2022-07-22T14:00:58;29.30;81.00
10702;DHT22;5402;50.004;8.246;2022-07-22T14:03:25;29.40;80.90
10702;DHT22;5402;50.004;8.246;2022-07-22T14:05:51;29.50;81.50
10702;DHT22;5402;50.004;8.246;2022-07-22T14:08:18;29.40;79.30
10702;DHT22;5402;50.004;8.246;2022-07-22T14:10:46;29.40;80.10
10702;DHT22;5402;50.004;8.246;2022-07-22T14:13:13;29.30;80.10
10702;DHT22;5402;50.004;8.246;2022-07-22T14:15:40;29.40;80.00
10702;DHT22;5402;50.004;8.246;2022-07-22T14:18:06;29.40;80.20
10702;DHT22;5402;50.004;8.246;2022-07-22T14:20:34;29.40;81.00
10702;DHT22;5402;50.004;8.246;2022-07-22T14:23:02;29.20;79.80
10702;DHT22;5402;50.004;8.246;2022-07-22T14:25:30;29.10;79.50
10702;DHT22;5402;50.004;8.246;2022-07-22T14:27:59;29.00;79.30
10702;DHT22;5402;50.004;8.246;2022-07-22T14:30:25;28.90;80.10
10702;DHT22;5402;50.004;8.246;2022-07-22T14:32:53;29.00;80.10
10702;DHT22;5402;50.004;8.246;2022-07-22T14:35:20;29.10;79.00
10702;DHT22;5402;50.004;8.246;2022-07-22T14:37:47;29.10;79.50
10702;DHT22;5402;50.004;8.246;2022-07-22T14:40:14;29.10;81.80
10702;DHT22;5402;50.004;8.246;2022-07-22T14:42:41;29.10;79.70
10702;DHT22;5402;50.004;8.246;2022-07-22T14:45:09;29.20;80.60
10702;DHT22;5402;50.004;8.246;2022-07-22T14:47:36;29.30;80.70
10702;DHT22;5402;50.004;8.246;2022-07-22T14:50:03;29.20;80.90
10702;DHT22;5402;50.004;8.246;2022-07-22T14:52:31;29.30;81.40
10702;DHT22;5402;50.004;8.246;2022-07-22T14:54:57;29.40;82.10
10702;DHT22;5402;50.004;8.246;2022-07-22T14:57:24;29.40;80.90
10702;DHT22;5402;50.004;8.246;2022-07-22T14:59:51;29.40;80.30
10702;DHT22;5402;50.004;8.246;2022-07-22T15:02:19;29.40;78.40
10702;DHT22;5402;50.004;8.246;2022-07-22T15:04:46;29.30;79.50
10702;DHT22;5402;50.004;8.246;2022-07-22T15:07:12;29.50;78.20
10702;DHT22;5402;50.004;8.246;2022-07-22T15:09:39;29.60;77.50
10702;DHT22;5402;50.004;8.246;2022-07-22T15:12:06;29.40;78.40
10702;DHT22;5402;50.004;8.246;2022-07-22T15:14:33;29.00;78.70
10702;DHT22;5402;50.004;8.246;2022-07-22T15:16:59;29.10;79.00
10702;DHT22;5402;50.004;8.246;2022-07-22T15:19:27;29.20;79.60
10702;DHT22;5402;50.004;8.246;2022-07-22T15:21:55;29.10;79.50
10702;DHT22;5402;50.004;8.246;2022-07-22T15:24:22;29.20;79.80
10702;DHT22;5402;50.004;8.246;2022-07-22T15:26:49;29.40;79.40
10702;DHT22;5402;50.004;8.246;2022-07-22T15:29:15;29.60;78.10
10702;DHT22;5402;50.004;8.246;2022-07-22T15:31:42;29.50;77.90
10702;DHT22;5402;50.004;8.246;2022-07-22T15:34:10;29.50;78.10
10702;DHT22;5402;50.004;8.246;2022-07-22T15:36:38;29.50;77.80
10702;DHT22;5402;50.004;8.246;2022-07-22T15:39:05;29.50;78.20
10702;DHT22;5402;50.004;8.246;2022-07-22T15:41:32;29.60;77.90
10702;DHT22;5402;50.004;8.246;2022-07-22T15:44:01;29.60;77.70
10702;DHT22;5402;50.004;8.246;2022-07-22T15:46:28;29.80;76.30
10702;DHT22;5402;50.004;8.246;2022-07-22T15:48:55;29.80;76.50
10702;DHT22;5402;50.004;8.246;2022-07-22T15:51:21;29.60;77.00
10702;DHT22;5402;50.004;8.246;2022-07-22T15:53:49;29.80;77.10